Time,TemperatureF,DewpointF,PressureIn,WindDirection,WindDirectionDegrees,WindSpeedMPH,WindSpeedGustMPH,Humidity,HourlyPrecipIn,Conditions,Clouds,dailyrainin,SoftwareType,DateUTC
2014-12-17 00:07:00,40.0,38.0,30.19,ESE,107,0.0,0.0,91,0.00,,,0.00,weatherlink.com 1.10,2014-12-17 08:07:00,
2014-12-17 00:22:00,40.1,38.0,30.19,East,79,0.0,1.0,91,0.00,,,0.00,weatherlink.com 1.10,2014-12-17 08:22:00,
2014-12-17 00:37:00,40.0,38.0,30.18,East,79,0.0,0.0,91,0.00,,,0.00,weatherlink.com 1.10,2014-12-17 08:37:00,
2014-12-17 00:52:00,39.9,38.0,30.17,ENE,58,0.0,1.0,91,0.00,,,0.00,weatherlink.com 1.10,2014-12-17 08:52:00,
2014-12-17 01:07:00,39.9,38.0,30.17,NE,51,0.0,0.0,91,0.00,,,0.00,weatherlink.com 1.10,2014-12-17 09:07:00,
2014-12-17 01:22:00,39.9,38.0,30.16,ENE,62,0.0,1.0,91,0.00,,,0.00,weatherlink.com 1.10,2014-12-17 09:22:00,
2014-12-17 01:37:00,40.2,38.0,30.16,NNE,18,0.0,0.0,92,0.00,,,0.00,weatherlink.com 1.10,2014-12-17 09:37:00,
2014-12-17 01:52:00,40.6,38.0,30.16,NNE,18,0.0,0.0,91,0.00,,,0.00,weatherlink.com 1.10,2014-12-17 09:52:00,
2014-12-17 02:07:00,40.4,38.0,30.16,SE,127,0.0,1.0,91,0.00,,,0.00,weatherlink.com 1.10,2014-12-17 10:07:00,
2014-12-17 02:22:00,40.3,38.0,30.16,SE,128,0.0,1.0,92,0.00,,,0.00,weatherlink.com 1.10,2014-12-17 10:22:00,
2014-12-17 02:52:00,41.7,39.0,30.17,South,186,0.0,1.0,89,0.01,,,0.01,weatherlink.com 1.10,2014-12-17 10:52:00,
2014-12-17 03:07:00,41.9,39.0,30.17,South,186,0.0,1.0,88,0.05,,,0.05,weatherlink.com 1.10,2014-12-17 11:07:00,
2014-12-17 03:22:00,41.6,39.0,30.17,South,186,0.0,1.0,89,0.09,,,0.09,weatherlink.com 1.10,2014-12-17 11:22:00,
2014-12-17 03:37:00,41.9,40.0,30.17,South,186,0.0,2.0,91,0.12,,,0.12,weatherlink.com 1.10,2014-12-17 11:37:00,
2014-12-17 03:52:00,43.9,42.0,30.16,South,187,0.0,5.0,92,0.14,,,0.15,weatherlink.com 1.10,2014-12-17 11:52:00,
2014-12-17 04:07:00,44.1,42.0,30.16,South,187,0.0,2.0,91,0.11,,,0.16,weatherlink.com 1.10,2014-12-17 12:07:00,
2014-12-17 04:22:00,43.7,41.0,30.15,East,79,0.0,2.0,90,0.07,,,0.16,weatherlink.com 1.10,2014-12-17 12:22:00,
2014-12-17 04:37:00,43.3,41.0,30.15,ENE,75,0.0,1.0,91,0.05,,,0.17,weatherlink.com 1.10,2014-12-17 12:37:00,
2014-12-17 04:52:00,42.8,41.0,30.15,ENE,75,0.0,0.0,92,0.02,,,0.17,weatherlink.com 1.10,2014-12-17 12:52:00,
2014-12-17 05:07:00,42.5,40.0,30.15,ENE,75,0.0,0.0,92,0.01,,,0.17,weatherlink.com 1.10,2014-12-17 13:07:00,
2014-12-17 05:22:00,42.6,41.0,30.16,South,184,0.0,0.0,93,0.01,,,0.17,weatherlink.com 1.10,2014-12-17 13:22:00,
2014-12-17 05:37:00,42.8,41.0,30.17,South,186,0.0,2.0,93,0.01,,,0.18,weatherlink.com 1.10,2014-12-17 13:37:00,
2014-12-17 05:52:00,42.7,41.0,30.18,SSE,160,1.0,2.0,93,0.03,,,0.20,weatherlink.com 1.10,2014-12-17 13:52:00,
2014-12-17 06:07:00,41.8,40.0,30.18,SSE,150,3.0,5.0,92,0.06,,,0.23,weatherlink.com 1.10,2014-12-17 14:07:00,
2014-12-17 06:22:00,41.4,40.0,30.18,SE,143,1.0,5.0,93,0.07,,,0.24,weatherlink.com 1.10,2014-12-17 14:22:00,
2014-12-17 06:37:00,41.8,40.0,30.19,SSE,150,0.0,5.0,93,0.07,,,0.25,weatherlink.com 1.10,2014-12-17 14:37:00,
2014-12-17 06:52:00,41.8,40.0,30.20,SE,132,1.0,1.0,92,0.05,,,0.25,weatherlink.com 1.10,2014-12-17 14:52:00,
2014-12-17 07:07:00,41.7,40.0,30.20,East,100,2.0,5.0,92,0.03,,,0.26,weatherlink.com 1.10,2014-12-17 15:07:00,
2014-12-17 07:22:00,41.7,40.0,30.20,ESE,114,1.0,5.0,92,0.02,,,0.26,weatherlink.com 1.10,2014-12-17 15:22:00,
2014-12-17 07:37:00,41.7,40.0,30.21,ENE,66,0.0,3.0,92,0.01,,,0.26,weatherlink.com 1.10,2014-12-17 15:37:00,
2014-12-17 07:52:00,41.9,40.0,30.22,South,183,0.0,2.0,92,0.01,,,0.26,weatherlink.com 1.10,2014-12-17 15:52:00,
2014-12-17 08:07:00,42.1,40.0,30.22,South,181,0.0,1.0,91,0.00,,,0.26,weatherlink.com 1.10,2014-12-17 16:07:00,
2014-12-17 08:22:00,42.2,40.0,30.23,South,183,0.0,0.0,91,0.01,,,0.27,weatherlink.com 1.10,2014-12-17 16:22:00,
2014-12-17 08:37:00,42.5,40.0,30.23,East,100,0.0,0.0,91,0.01,,,0.27,weatherlink.com 1.10,2014-12-17 16:37:00,
2014-12-17 08:52:00,43.0,41.0,30.24,East,100,0.0,0.0,92,0.01,,,0.27,weatherlink.com 1.10,2014-12-17 16:52:00,
2014-12-17 09:07:00,43.6,42.0,30.24,East,100,0.0,0.0,92,0.01,,,0.27,weatherlink.com 1.10,2014-12-17 17:07:00,
2014-12-17 09:22:00,44.5,42.0,30.25,South,187,3.0,3.0,92,0.00,,,0.27,weatherlink.com 1.10,2014-12-17 17:22:00,
2014-12-17 09:38:00,44.9,42.0,30.25,SSE,165,1.0,5.0,90,0.00,,,0.27,weatherlink.com 1.10,2014-12-17 17:38:00,
2014-12-17 09:53:00,45.3,42.0,30.26,South,187,1.0,3.0,89,0.00,,,0.27,weatherlink.com 1.10,2014-12-17 17:53:00,
2014-12-17 10:08:00,46.2,43.0,30.26,South,187,0.0,2.0,88,0.00,,,0.27,weatherlink.com 1.10,2014-12-17 18:08:00,
2014-12-17 10:23:00,47.3,43.0,30.26,South,169,0.0,3.0,86,0.00,,,0.27,weatherlink.com 1.10,2014-12-17 18:23:00,
2014-12-17 10:38:00,47.7,43.0,30.26,South,188,1.0,5.0,83,0.00,,,0.27,weatherlink.com 1.10,2014-12-17 18:38:00,
2014-12-17 10:53:00,47.4,43.0,30.26,South,187,1.0,4.0,83,0.00,,,0.27,weatherlink.com 1.10,2014-12-17 18:53:00,
2014-12-17 11:08:00,47.7,42.0,30.25,South,187,0.0,4.0,80,0.00,,,0.27,weatherlink.com 1.10,2014-12-17 19:08:00,
2014-12-17 11:23:00,48.7,41.0,30.24,West,278,5.0,8.0,76,0.00,,,0.27,weatherlink.com 1.10,2014-12-17 19:23:00,
2014-12-17 11:38:00,49.3,42.0,30.24,NNW,336,4.0,9.0,75,0.00,,,0.27,weatherlink.com 1.10,2014-12-17 19:38:00,
2014-12-17 11:53:00,49.8,41.0,30.23,WSW,250,2.0,7.0,72,0.00,,,0.27,weatherlink.com 1.10,2014-12-17 19:53:00,
2014-12-17 12:08:00,50.4,42.0,30.23,West,259,3.0,8.0,72,0.00,,,0.27,weatherlink.com 1.10,2014-12-17 20:08:00,
2014-12-17 12:23:00,49.8,40.0,30.23,WNW,285,3.0,7.0,70,0.00,,,0.27,weatherlink.com 1.10,2014-12-17 20:23:00,
2014-12-17 12:38:00,49.7,41.0,30.22,West,277,2.0,5.0,73,0.00,,,0.27,weatherlink.com 1.10,2014-12-17 20:38:00,
2014-12-17 12:53:00,49.7,40.0,30.22,West,280,5.0,8.0,70,0.00,,,0.27,weatherlink.com 1.10,2014-12-17 20:53:00,
2014-12-17 13:08:00,50.3,41.0,30.22,WNW,294,3.0,8.0,70,0.00,,,0.27,weatherlink.com 1.10,2014-12-17 21:08:00,
2014-12-17 13:23:00,49.9,40.0,30.23,NW,305,6.0,9.0,70,0.00,,,0.27,weatherlink.com 1.10,2014-12-17 21:23:00,
2014-12-17 13:38:00,49.6,40.0,30.23,West,280,5.0,7.0,70,0.00,,,0.27,weatherlink.com 1.10,2014-12-17 21:38:00,
2014-12-17 13:53:00,49.6,40.0,30.23,West,271,3.0,7.0,70,0.00,,,0.27,weatherlink.com 1.10,2014-12-17 21:53:00,
2014-12-17 14:08:00,49.5,40.0,30.23,West,278,5.0,6.0,70,0.00,,,0.27,weatherlink.com 1.10,2014-12-17 22:08:00,
2014-12-17 14:23:00,49.6,40.0,30.23,WNW,287,1.0,7.0,70,0.00,,,0.27,weatherlink.com 1.10,2014-12-17 22:23:00,
2014-12-17 14:38:00,49.6,40.0,30.24,WNW,293,4.0,8.0,70,0.00,,,0.27,weatherlink.com 1.10,2014-12-17 22:38:00,
2014-12-17 14:53:00,48.9,39.0,30.24,South,189,6.0,11.0,69,0.00,,,0.27,weatherlink.com 1.10,2014-12-17 22:53:00,
2014-12-17 15:08:00,48.5,39.0,30.25,South,187,2.0,6.0,71,0.00,,,0.27,weatherlink.com 1.10,2014-12-17 23:08:00,
2014-12-17 15:23:00,48.9,39.0,30.24,South,189,5.0,6.0,69,0.00,,,0.27,weatherlink.com 1.10,2014-12-17 23:23:00,
2014-12-17 15:38:00,49.0,39.0,30.24,South,188,3.0,7.0,68,0.00,,,0.27,weatherlink.com 1.10,2014-12-17 23:38:00,
2014-12-17 15:53:00,48.9,39.0,30.24,WSW,249,7.0,9.0,68,0.00,,,0.27,weatherlink.com 1.10,2014-12-17 23:53:00,
2014-12-17 16:08:00,48.6,40.0,30.25,SW,231,6.0,7.0,72,0.00,,,0.27,weatherlink.com 1.10,2014-12-18 00:08:00,
2014-12-17 16:23:00,47.9,40.0,30.25,SW,224,3.0,6.0,74,0.00,,,0.27,weatherlink.com 1.10,2014-12-18 00:23:00,
2014-12-17 16:38:00,47.6,40.0,30.25,SW,222,4.0,7.0,74,0.00,,,0.27,weatherlink.com 1.10,2014-12-18 00:38:00,
2014-12-17 16:53:00,47.5,40.0,30.25,WSW,238,2.0,5.0,76,0.00,,,0.27,weatherlink.com 1.10,2014-12-18 00:53:00,
2014-12-17 17:08:00,47.3,40.0,30.25,WSW,253,3.0,4.0,77,0.00,,,0.27,weatherlink.com 1.10,2014-12-18 01:08:00,
2014-12-17 17:23:00,47.2,40.0,30.26,SW,224,4.0,5.0,77,0.00,,,0.27,weatherlink.com 1.10,2014-12-18 01:23:00,
2014-12-17 17:38:00,47.1,38.0,30.27,WNW,294,5.0,10.0,72,0.00,,,0.27,weatherlink.com 1.10,2014-12-18 01:38:00,
2014-12-17 17:53:00,46.9,37.0,30.27,WSW,245,3.0,9.0,68,0.00,,,0.27,weatherlink.com 1.10,2014-12-18 01:53:00,
2014-12-17 18:08:00,46.5,37.0,30.28,WSW,257,5.0,9.0,69,0.00,,,0.27,weatherlink.com 1.10,2014-12-18 02:08:00,
2014-12-17 18:23:00,46.0,36.0,30.28,West,281,3.0,8.0,69,0.00,,,0.27,weatherlink.com 1.10,2014-12-18 02:23:00,
2014-12-17 18:38:00,45.4,36.0,30.29,West,276,3.0,5.0,71,0.00,,,0.27,weatherlink.com 1.10,2014-12-18 02:38:00,